UAE229 OMDB-KSEA
Flight info
| Callsign | UAE229 |
|---|---|
| Flight time | N/A |
| Altitude | 31000 |
| Route | IVURO M677 LALDO B505 PG G325 PS P500 ATROL/N0500F320 P500 GERRY/N0502F310 P500 MOTMO/N0499F320 P500 FIRUZ/K0922F320 Z407 POMIR L139 MAGOL P178 TIMKA M168 ALZIS/K0909F330 N990 ML/K0896F340 N990 ANODI L165 ABERI/N0493F360 DCT 85N107W 80N116W 75N118W/N0495F370 70N119W 65N119W 60N120W/N0479F390 55N121W DCT YVR DCT ROESH MARNR8 |
| Aircraft | B77W/H-SDE1E2E3FGHIJ2J3J4J5M1RWXY/LB1D1 |
Departure
| Time | 2026-05-08 07:35 |
|---|---|
| Airport | Dubai International Airport (OMDB) |
Arrival
| Time | N/A |
|---|---|
| Airport | Seattle–Tacoma International Airport (KSEA) |
| Time | Latitude | Longitude | Altitude | Speed | Heading |
|---|---|---|---|---|---|
| 2026-05-08 06:42 | 25.24198 | 55.37250 | 77 ft | 0 kts | 31° |
| 2026-05-08 07:21 | 25.24193 | 55.37247 | 77 ft | 2 kts | 31° |
| 2026-05-08 07:22 | 25.24185 | 55.37242 | 77 ft | 2 kts | 31° |
| 2026-05-08 07:22 | 25.24172 | 55.37233 | 77 ft | 2 kts | 31° |
| 2026-05-08 07:22 | 25.24159 | 55.37224 | 77 ft | 2 kts | 32° |
| 2026-05-08 07:22 | 25.24147 | 55.37214 | 77 ft | 2 kts | 52° |
| 2026-05-08 07:23 | 25.24138 | 55.37195 | 77 ft | 2 kts | 73° |
| 2026-05-08 07:23 | 25.24136 | 55.37184 | 77 ft | 2 kts | 84° |
| 2026-05-08 07:23 | 25.24137 | 55.37162 | 77 ft | 2 kts | 105° |
| 2026-05-08 07:23 | 25.24140 | 55.37152 | 77 ft | 2 kts | 116° |
| 2026-05-08 07:24 | 25.24144 | 55.37144 | 77 ft | 0 kts | 122° |
| 2026-05-08 07:27 | 25.24138 | 55.37154 | 77 ft | 4 kts | 121° |
| 2026-05-08 07:27 | 25.24115 | 55.37197 | 77 ft | 9 kts | 121° |
| 2026-05-08 07:28 | 25.24078 | 55.37264 | 77 ft | 9 kts | 121° |
| 2026-05-08 07:28 | 25.24038 | 55.37338 | 77 ft | 7 kts | 121° |
| 2026-05-08 07:28 | 25.24012 | 55.37384 | 77 ft | 6 kts | 121° |
| 2026-05-08 07:28 | 25.23989 | 55.37426 | 77 ft | 6 kts | 121° |
| 2026-05-08 07:29 | 25.23976 | 55.37456 | 77 ft | 6 kts | 109° |
| 2026-05-08 07:29 | 25.23969 | 55.37510 | 77 ft | 7 kts | 86° |
| 2026-05-08 07:29 | 25.23986 | 55.37568 | 77 ft | 8 kts | 59° |
| 2026-05-08 07:29 | 25.24028 | 55.37613 | 77 ft | 8 kts | 32° |
| 2026-05-08 07:30 | 25.24084 | 55.37651 | 77 ft | 10 kts | 31° |
| 2026-05-08 07:30 | 25.24149 | 55.37695 | 77 ft | 11 kts | 31° |
| 2026-05-08 07:30 | 25.24223 | 55.37744 | 77 ft | 10 kts | 31° |
| 2026-05-08 07:30 | 25.24279 | 55.37782 | 77 ft | 8 kts | 32° |
| 2026-05-08 07:31 | 25.24322 | 55.37812 | 77 ft | 6 kts | 32° |
| 2026-05-08 07:31 | 25.24366 | 55.37844 | 77 ft | 8 kts | 33° |
| 2026-05-08 07:31 | 25.24426 | 55.37888 | 77 ft | 11 kts | 33° |
| 2026-05-08 07:31 | 25.24524 | 55.37962 | 77 ft | 11 kts | 35° |
| 2026-05-08 07:32 | 25.24565 | 55.37995 | 77 ft | 10 kts | 35° |
| 2026-05-08 07:32 | 25.24613 | 55.38029 | 77 ft | 6 kts | 31° |
| 2026-05-08 07:32 | 25.24632 | 55.38042 | 77 ft | 1 kts | 31° |
| 2026-05-08 07:32 | 25.24648 | 55.38052 | 77 ft | 3 kts | 31° |
| 2026-05-08 07:33 | 25.24697 | 55.38085 | 77 ft | 8 kts | 31° |
| 2026-05-08 07:33 | 25.24742 | 55.38114 | 77 ft | 5 kts | 18° |
| 2026-05-08 07:33 | 25.24759 | 55.38108 | 77 ft | 3 kts | 314° |
| 2026-05-08 07:33 | 25.24770 | 55.38092 | 77 ft | 1 kts | 306° |
| 2026-05-08 07:34 | 25.24772 | 55.38089 | 77 ft | 0 kts | 302° |
| 2026-05-08 07:34 | 25.24785 | 55.38066 | 77 ft | 16 kts | 302° |
| 2026-05-08 07:34 | 25.24879 | 55.37898 | 77 ft | 61 kts | 301° |
| 2026-05-08 07:35 | 25.25219 | 55.37285 | 76 ft | 124 kts | 301° |
| 2026-05-08 07:35 | 25.25776 | 55.36280 | 76 ft | 180 kts | 301° |
| 2026-05-08 07:35 | 25.26484 | 55.35004 | 442 ft | 200 kts | 298° |
| 2026-05-08 07:35 | 25.27424 | 55.33249 | 1454 ft | 200 kts | 300° |
| 2026-05-08 07:36 | 25.27914 | 55.32367 | 1665 ft | 207 kts | 300° |
| 2026-05-08 07:36 | 25.28694 | 55.30999 | 2016 ft | 214 kts | 305° |
| 2026-05-08 07:36 | 25.29792 | 55.29830 | 2340 ft | 224 kts | 325° |
| 2026-05-08 07:36 | 25.31244 | 55.29160 | 2790 ft | 231 kts | 347° |
| 2026-05-08 07:37 | 25.32857 | 55.29193 | 3248 ft | 237 kts | 10° |
| 2026-05-08 07:37 | 25.34474 | 55.29497 | 3771 ft | 237 kts | 4° |
| 2026-05-08 07:37 | 25.36131 | 55.29620 | 3949 ft | 237 kts | 360° |
| 2026-05-08 07:37 | 25.37815 | 55.29674 | 4271 ft | 242 kts | 1° |
| 2026-05-08 07:38 | 25.39425 | 55.30081 | 4911 ft | 239 kts | 23° |
| 2026-05-08 07:38 | 25.40812 | 55.31135 | 5255 ft | 252 kts | 44° |
| 2026-05-08 07:38 | 25.41982 | 55.32649 | 5536 ft | 266 kts | 49° |
| 2026-05-08 07:38 | 25.43573 | 55.34849 | 6021 ft | 281 kts | 49° |
| 2026-05-08 07:39 | 25.44394 | 55.35979 | 6334 ft | 286 kts | 49° |
| 2026-05-08 07:39 | 25.45651 | 55.37700 | 6854 ft | 291 kts | 50° |
| 2026-05-08 07:39 | 25.46927 | 55.39443 | 7410 ft | 294 kts | 50° |
| 2026-05-08 07:39 | 25.48658 | 55.41811 | 8149 ft | 299 kts | 51° |
| 2026-05-08 07:40 | 25.49933 | 55.43629 | 8752 ft | 300 kts | 52° |
| 2026-05-08 07:40 | 25.50780 | 55.44854 | 9136 ft | 302 kts | 53° |
| 2026-05-08 07:40 | 25.52019 | 55.46747 | 9651 ft | 305 kts | 63° |
| 2026-05-08 07:40 | 25.52716 | 55.48961 | 10119 ft | 308 kts | 81° |
| 2026-05-08 07:41 | 25.52846 | 55.52184 | 10433 ft | 326 kts | 98° |
| 2026-05-08 07:41 | 25.52312 | 55.54666 | 10665 ft | 340 kts | 112° |
| 2026-05-08 07:41 | 25.51176 | 55.57015 | 10845 ft | 354 kts | 126° |
| 2026-05-08 07:41 | 25.50187 | 55.58496 | 11035 ft | 363 kts | 127° |
| 2026-05-08 07:42 | 25.48620 | 55.60754 | 11355 ft | 376 kts | 128° |
| 2026-05-08 07:42 | 25.47011 | 55.63061 | 11873 ft | 383 kts | 128° |
| 2026-05-08 07:42 | 25.45381 | 55.65395 | 12509 ft | 384 kts | 129° |
| 2026-05-08 07:42 | 25.43807 | 55.67762 | 13229 ft | 384 kts | 123° |
| 2026-05-08 07:43 | 25.42578 | 55.70384 | 13785 ft | 389 kts | 113° |
| 2026-05-08 07:43 | 25.41764 | 55.73258 | 14234 ft | 397 kts | 105° |
| 2026-05-08 07:43 | 25.41130 | 55.76250 | 14744 ft | 403 kts | 104° |
| 2026-05-08 07:43 | 25.40497 | 55.79270 | 15258 ft | 407 kts | 104° |
| 2026-05-08 07:44 | 25.39855 | 55.82320 | 15824 ft | 410 kts | 104° |
| 2026-05-08 07:44 | 25.39204 | 55.85397 | 16365 ft | 414 kts | 104° |
| 2026-05-08 07:44 | 25.38545 | 55.88496 | 16832 ft | 418 kts | 104° |
| 2026-05-08 07:44 | 25.37879 | 55.91623 | 17366 ft | 421 kts | 104° |
| 2026-05-08 07:45 | 25.37207 | 55.94770 | 17839 ft | 425 kts | 104° |
| 2026-05-08 07:45 | 25.36525 | 55.97961 | 18275 ft | 429 kts | 104° |
| 2026-05-08 07:45 | 25.35836 | 56.01180 | 18723 ft | 433 kts | 104° |
| 2026-05-08 07:45 | 25.35140 | 56.04425 | 19181 ft | 437 kts | 104° |
| 2026-05-08 07:46 | 25.34437 | 56.07699 | 19668 ft | 441 kts | 104° |
| 2026-05-08 07:46 | 25.33730 | 56.10990 | 20117 ft | 444 kts | 104° |
| 2026-05-08 07:46 | 25.33020 | 56.14312 | 20525 ft | 447 kts | 103° |
| 2026-05-08 07:46 | 25.32574 | 56.17725 | 20921 ft | 453 kts | 97° |
| 2026-05-08 07:47 | 25.32282 | 56.21191 | 21348 ft | 456 kts | 96° |
| 2026-05-08 07:47 | 25.31997 | 56.24681 | 21767 ft | 459 kts | 96° |
| 2026-05-08 07:47 | 25.31709 | 56.28193 | 22180 ft | 462 kts | 96° |
| 2026-05-08 07:47 | 25.31416 | 56.31738 | 22564 ft | 465 kts | 96° |
| 2026-05-08 07:48 | 25.31120 | 56.35301 | 22960 ft | 468 kts | 96° |
| 2026-05-08 07:48 | 25.30820 | 56.38886 | 23344 ft | 472 kts | 96° |
| 2026-05-08 07:48 | 25.30592 | 56.42506 | 23710 ft | 475 kts | 93° |
| 2026-05-08 07:48 | 25.30499 | 56.46159 | 24076 ft | 478 kts | 92° |
| 2026-05-08 07:49 | 25.30411 | 56.49832 | 24442 ft | 481 kts | 92° |
| 2026-05-08 07:49 | 25.30317 | 56.53528 | 24793 ft | 484 kts | 92° |
| 2026-05-08 07:49 | 25.30166 | 56.57236 | 25130 ft | 486 kts | 97° |
| 2026-05-08 07:49 | 25.29271 | 56.62106 | 25573 ft | 488 kts | 109° |
| 2026-05-08 07:50 | 25.28500 | 56.64450 | 25792 ft | 489 kts | 113° |
| 2026-05-08 07:50 | 25.27199 | 56.67923 | 26139 ft | 492 kts | 114° |
| 2026-05-08 07:50 | 25.25874 | 56.71407 | 26479 ft | 495 kts | 114° |
| 2026-05-08 07:50 | 25.24541 | 56.74908 | 26830 ft | 497 kts | 114° |
| 2026-05-08 07:51 | 25.23204 | 56.78422 | 27171 ft | 500 kts | 114° |
| 2026-05-08 07:51 | 25.21858 | 56.81957 | 27521 ft | 502 kts | 114° |
| 2026-05-08 07:51 | 25.20506 | 56.85509 | 27870 ft | 504 kts | 114° |
| 2026-05-08 07:51 | 25.19148 | 56.89077 | 28188 ft | 507 kts | 114° |
| 2026-05-08 07:52 | 25.17782 | 56.92662 | 28513 ft | 509 kts | 114° |
| 2026-05-08 07:52 | 25.16410 | 56.96262 | 28843 ft | 511 kts | 114° |
| 2026-05-08 07:52 | 25.15031 | 56.99877 | 29185 ft | 513 kts | 115° |
| 2026-05-08 07:52 | 25.13653 | 57.03488 | 29621 ft | 512 kts | 115° |
| 2026-05-08 07:53 | 25.12273 | 57.07101 | 30095 ft | 511 kts | 115° |
| 2026-05-08 07:53 | 25.10897 | 57.10700 | 30532 ft | 510 kts | 115° |
| 2026-05-08 07:53 | 25.09519 | 57.14302 | 30753 ft | 513 kts | 115° |
| 2026-05-08 07:54 | 25.06752 | 57.21525 | 30764 ft | 511 kts | 115° |
| 2026-05-08 07:54 | 25.03988 | 57.28729 | 30767 ft | 510 kts | 114° |
| 2026-05-08 07:55 | 25.01229 | 57.35906 | 30766 ft | 510 kts | 115° |
| 2026-05-08 07:55 | 24.98463 | 57.43091 | 30768 ft | 511 kts | 114° |
| 2026-05-08 07:56 | 24.95695 | 57.50267 | 30763 ft | 510 kts | 114° |
| 2026-05-08 07:56 | 24.92923 | 57.57444 | 30766 ft | 510 kts | 114° |
| 2026-05-08 07:57 | 24.90146 | 57.64619 | 30765 ft | 510 kts | 114° |
| 2026-05-08 07:57 | 24.87361 | 57.71804 | 30760 ft | 511 kts | 115° |
| 2026-05-08 07:58 | 24.84174 | 57.80195 | 30744 ft | 511 kts | 110° |
| 2026-05-08 07:58 | 24.82903 | 57.86552 | 30754 ft | 514 kts | 97° |
| 2026-05-08 07:59 | 24.82261 | 57.94372 | 30757 ft | 514 kts | 96° |
| 2026-05-08 07:59 | 24.81641 | 58.02182 | 30753 ft | 514 kts | 96° |
| 2026-05-08 08:00 | 24.81011 | 58.10001 | 30748 ft | 515 kts | 96° |
| 2026-05-08 08:00 | 24.80374 | 58.17820 | 30747 ft | 514 kts | 96° |
| 2026-05-08 08:01 | 24.79731 | 58.25635 | 30744 ft | 514 kts | 96° |
| 2026-05-08 08:01 | 24.79083 | 58.33462 | 30741 ft | 515 kts | 96° |
| 2026-05-08 08:02 | 24.78430 | 58.41284 | 30746 ft | 515 kts | 96° |
| 2026-05-08 08:02 | 24.77771 | 58.49116 | 30746 ft | 516 kts | 96° |
| 2026-05-08 08:03 | 24.77109 | 58.56943 | 30753 ft | 515 kts | 96° |
| 2026-05-08 08:03 | 24.76444 | 58.64762 | 30746 ft | 514 kts | 96° |
| 2026-05-08 08:04 | 24.75775 | 58.72571 | 30747 ft | 514 kts | 96° |
| 2026-05-08 08:04 | 24.75101 | 58.80384 | 30742 ft | 514 kts | 96° |
| 2026-05-08 08:05 | 24.74425 | 58.88186 | 30736 ft | 514 kts | 96° |
| 2026-05-08 08:05 | 24.73745 | 58.95978 | 30733 ft | 514 kts | 96° |
| 2026-05-08 08:06 | 24.73060 | 59.03780 | 30734 ft | 513 kts | 96° |
| 2026-05-08 08:06 | 24.72371 | 59.11585 | 30738 ft | 514 kts | 96° |
| 2026-05-08 08:07 | 24.71563 | 59.20687 | 30738 ft | 515 kts | 96° |
| 2026-05-08 08:07 | 24.70983 | 59.27188 | 30741 ft | 513 kts | 96° |
| 2026-05-08 08:08 | 24.70285 | 59.34975 | 30750 ft | 514 kts | 96° |
| 2026-05-08 08:08 | 24.69581 | 59.42768 | 30750 ft | 514 kts | 96° |
| 2026-05-08 08:09 | 24.68874 | 59.50564 | 30748 ft | 514 kts | 96° |
| 2026-05-08 08:09 | 24.68164 | 59.58343 | 30744 ft | 513 kts | 96° |
| 2026-05-08 08:10 | 24.67449 | 59.66127 | 30739 ft | 514 kts | 96° |
| 2026-05-08 08:10 | 24.66730 | 59.73911 | 30734 ft | 513 kts | 96° |
| 2026-05-08 08:11 | 24.66008 | 59.81691 | 30731 ft | 514 kts | 96° |
| 2026-05-08 08:11 | 24.65282 | 59.89467 | 30731 ft | 512 kts | 96° |
| 2026-05-08 08:12 | 24.64551 | 59.97246 | 30731 ft | 513 kts | 96° |
| 2026-05-08 08:12 | 24.63816 | 60.05024 | 30732 ft | 513 kts | 96° |
| 2026-05-08 08:13 | 24.63078 | 60.12797 | 30732 ft | 513 kts | 96° |
| 2026-05-08 08:13 | 24.62335 | 60.20582 | 30732 ft | 514 kts | 96° |
| 2026-05-08 08:14 | 24.61587 | 60.28367 | 30733 ft | 514 kts | 96° |
| 2026-05-08 08:14 | 24.60835 | 60.36159 | 30732 ft | 514 kts | 96° |
| 2026-05-08 08:15 | 24.59953 | 60.45235 | 30735 ft | 514 kts | 96° |
| 2026-05-08 08:15 | 24.59319 | 60.51728 | 30740 ft | 514 kts | 96° |
| 2026-05-08 08:16 | 24.58555 | 60.59513 | 30738 ft | 515 kts | 96° |
| 2026-05-08 08:16 | 24.58254 | 60.67336 | 30742 ft | 514 kts | 90° |
| 2026-05-08 08:17 | 24.58270 | 60.75167 | 30741 ft | 515 kts | 90° |
| 2026-05-08 08:17 | 24.58278 | 60.83003 | 30746 ft | 514 kts | 90° |
| 2026-05-08 08:18 | 24.58279 | 60.90835 | 30754 ft | 515 kts | 90° |
| 2026-05-08 08:18 | 24.58274 | 60.98680 | 30751 ft | 515 kts | 90° |
| 2026-05-08 08:19 | 24.58263 | 61.06510 | 30753 ft | 514 kts | 90° |
| 2026-05-08 08:19 | 24.58248 | 61.14346 | 30746 ft | 515 kts | 90° |
| 2026-05-08 08:20 | 24.58229 | 61.22184 | 30744 ft | 515 kts | 89° |
| 2026-05-08 08:20 | 24.58275 | 61.30018 | 30744 ft | 514 kts | 85° |
| 2026-05-08 08:21 | 24.59759 | 61.37662 | 30746 ft | 514 kts | 69° |
| 2026-05-08 08:21 | 24.62343 | 61.44961 | 30744 ft | 513 kts | 67° |
| 2026-05-08 08:22 | 24.64954 | 61.52235 | 30739 ft | 513 kts | 67° |
| 2026-05-08 08:22 | 24.67994 | 61.60732 | 30742 ft | 514 kts | 67° |
| 2026-05-08 08:23 | 24.70164 | 61.66815 | 30737 ft | 514 kts | 68° |
| 2026-05-08 08:23 | 24.72758 | 61.74101 | 30737 ft | 513 kts | 68° |
| 2026-05-08 08:24 | 24.75350 | 61.81396 | 30740 ft | 513 kts | 68° |
| 2026-05-08 08:24 | 24.77939 | 61.88699 | 30742 ft | 514 kts | 68° |
| 2026-05-08 08:25 | 24.80526 | 61.96006 | 30743 ft | 513 kts | 68° |
| 2026-05-08 08:25 | 24.83106 | 62.03309 | 30748 ft | 513 kts | 67° |
| 2026-05-08 08:26 | 24.85683 | 62.10616 | 30748 ft | 513 kts | 67° |
| 2026-05-08 08:26 | 24.88257 | 62.17928 | 30759 ft | 514 kts | 67° |
| 2026-05-08 08:27 | 24.90829 | 62.25249 | 30765 ft | 514 kts | 67° |
| 2026-05-08 08:27 | 24.93399 | 62.32576 | 30765 ft | 514 kts | 67° |
| 2026-05-08 08:28 | 24.95963 | 62.39898 | 30765 ft | 514 kts | 67° |
| 2026-05-08 08:28 | 24.98527 | 62.47235 | 30766 ft | 514 kts | 67° |
| 2026-05-08 08:29 | 25.01086 | 62.54571 | 30763 ft | 514 kts | 67° |
| 2026-05-08 08:29 | 25.03641 | 62.61906 | 30759 ft | 514 kts | 67° |
| 2026-05-08 08:30 | 25.06194 | 62.69252 | 30758 ft | 515 kts | 68° |
| 2026-05-08 08:30 | 25.10015 | 62.80271 | 30762 ft | 514 kts | 67° |
| 2026-05-08 08:31 | 25.12560 | 62.87628 | 30761 ft | 514 kts | 67° |
| 2026-05-08 08:31 | 25.15101 | 62.94986 | 30765 ft | 515 kts | 67° |
| 2026-05-08 08:32 | 25.17640 | 63.02351 | 30762 ft | 514 kts | 67° |
| 2026-05-08 08:32 | 25.20175 | 63.09719 | 30759 ft | 515 kts | 67° |
| 2026-05-08 08:33 | 25.22705 | 63.17086 | 30754 ft | 515 kts | 67° |
| 2026-05-08 08:33 | 25.25238 | 63.24456 | 30749 ft | 514 kts | 65° |
| 2026-05-08 08:34 | 25.28760 | 63.31222 | 30741 ft | 508 kts | 49° |
| 2026-05-08 08:34 | 25.33794 | 63.36585 | 30749 ft | 502 kts | 33° |
| 2026-05-08 08:35 | 25.39873 | 63.40206 | 30765 ft | 496 kts | 20° |
| 2026-05-08 08:35 | 25.46246 | 63.43131 | 30766 ft | 495 kts | 19° |
| 2026-05-08 08:36 | 25.52601 | 63.46069 | 30773 ft | 495 kts | 20° |
| 2026-05-08 08:36 | 25.58947 | 63.49027 | 30785 ft | 495 kts | 20° |
| 2026-05-08 08:37 | 25.65288 | 63.51995 | 30796 ft | 496 kts | 20° |
| 2026-05-08 08:37 | 25.71635 | 63.54976 | 30815 ft | 495 kts | 20° |
| 2026-05-08 08:38 | 25.77975 | 63.57959 | 30826 ft | 495 kts | 20° |
| 2026-05-08 08:38 | 25.84298 | 63.60941 | 30845 ft | 493 kts | 19° |
| 2026-05-08 08:39 | 25.90616 | 63.63924 | 30866 ft | 494 kts | 19° |
| 2026-05-08 08:39 | 25.96951 | 63.66918 | 30879 ft | 495 kts | 20° |
| 2026-05-08 08:40 | 26.03287 | 63.69914 | 30890 ft | 495 kts | 20° |
| 2026-05-08 08:40 | 26.09620 | 63.72903 | 30913 ft | 494 kts | 20° |
| 2026-05-08 08:41 | 26.15952 | 63.75895 | 30930 ft | 493 kts | 20° |
| 2026-05-08 08:41 | 26.22246 | 63.78874 | 30949 ft | 492 kts | 19° |
| 2026-05-08 08:42 | 26.28553 | 63.81861 | 30948 ft | 493 kts | 19° |
| 2026-05-08 08:42 | 26.34856 | 63.84851 | 30964 ft | 492 kts | 19° |
| 2026-05-08 08:43 | 26.41170 | 63.87849 | 30976 ft | 493 kts | 19° |
| 2026-05-08 08:43 | 26.47488 | 63.90853 | 30991 ft | 493 kts | 19° |
| 2026-05-08 08:44 | 26.53801 | 63.93859 | 31005 ft | 492 kts | 19° |
| 2026-05-08 08:44 | 26.60085 | 63.96854 | 31001 ft | 491 kts | 19° |
| 2026-05-08 08:45 | 26.66364 | 63.99850 | 31005 ft | 491 kts | 19° |
| 2026-05-08 08:45 | 26.72656 | 64.02855 | 31010 ft | 491 kts | 19° |
| 2026-05-08 08:46 | 26.78942 | 64.05863 | 31027 ft | 491 kts | 19° |
| 2026-05-08 08:46 | 26.85235 | 64.08876 | 31044 ft | 492 kts | 19° |
| 2026-05-08 08:47 | 26.91519 | 64.11900 | 31042 ft | 491 kts | 21° |
| 2026-05-08 08:47 | 26.97277 | 64.16111 | 31066 ft | 503 kts | 38° |
| 2026-05-08 08:48 | 27.02257 | 64.21659 | 31072 ft | 506 kts | 41° |
| 2026-05-08 08:48 | 27.07178 | 64.27295 | 31091 ft | 506 kts | 41° |
| 2026-05-08 08:49 | 27.12090 | 64.32929 | 31125 ft | 506 kts | 41° |
| 2026-05-08 08:49 | 27.16995 | 64.38560 | 31134 ft | 505 kts | 41° |
| 2026-05-08 08:50 | 27.21896 | 64.44194 | 31144 ft | 505 kts | 40° |
| 2026-05-08 08:50 | 27.26794 | 64.49832 | 31157 ft | 504 kts | 40° |
| 2026-05-08 08:51 | 27.31675 | 64.55458 | 31135 ft | 504 kts | 40° |
| 2026-05-08 08:51 | 27.36573 | 64.61109 | 31112 ft | 504 kts | 40° |
| 2026-05-08 08:52 | 27.41450 | 64.66746 | 31115 ft | 503 kts | 41° |
| 2026-05-08 08:52 | 27.46335 | 64.72397 | 31117 ft | 505 kts | 41° |
| 2026-05-08 08:53 | 27.51212 | 64.78049 | 31134 ft | 503 kts | 41° |
| 2026-05-08 08:53 | 27.56071 | 64.83687 | 31122 ft | 504 kts | 41° |
| 2026-05-08 08:54 | 27.60944 | 64.89350 | 31097 ft | 502 kts | 40° |
| 2026-05-08 08:54 | 27.65805 | 64.95004 | 31075 ft | 503 kts | 41° |
| 2026-05-08 08:55 | 27.70648 | 65.00647 | 31039 ft | 501 kts | 40° |
| 2026-05-08 08:55 | 27.75492 | 65.06297 | 31029 ft | 502 kts | 40° |
| 2026-05-08 08:56 | 27.80336 | 65.11957 | 31037 ft | 501 kts | 40° |
| 2026-05-08 08:56 | 27.85170 | 65.17611 | 31039 ft | 501 kts | 40° |
| 2026-05-08 08:57 | 27.89998 | 65.23267 | 31031 ft | 501 kts | 40° |
| 2026-05-08 08:57 | 27.94820 | 65.28923 | 31041 ft | 500 kts | 40° |
| 2026-05-08 08:58 | 27.99644 | 65.34589 | 31041 ft | 501 kts | 40° |
| 2026-05-08 08:58 | 28.04462 | 65.40257 | 31051 ft | 499 kts | 40° |
| 2026-05-08 08:59 | 28.09273 | 65.45923 | 31059 ft | 500 kts | 40° |
| 2026-05-08 08:59 | 28.14089 | 65.51604 | 31058 ft | 501 kts | 40° |
| 2026-05-08 09:00 | 28.18887 | 65.57271 | 31100 ft | 499 kts | 40° |
| 2026-05-08 09:00 | 28.23687 | 65.62948 | 31135 ft | 498 kts | 40° |
| 2026-05-08 09:01 | 28.28467 | 65.68610 | 31148 ft | 498 kts | 41° |
| 2026-05-08 09:01 | 28.33257 | 65.74291 | 31176 ft | 498 kts | 40° |
| 2026-05-08 09:02 | 28.38046 | 65.79978 | 31198 ft | 500 kts | 40° |
| 2026-05-08 09:02 | 28.42832 | 65.85671 | 31219 ft | 500 kts | 40° |
| 2026-05-08 09:03 | 28.47630 | 65.91386 | 31259 ft | 500 kts | 40° |
| 2026-05-08 09:03 | 28.52421 | 65.97100 | 31315 ft | 498 kts | 40° |
| 2026-05-08 09:04 | 28.57185 | 66.02791 | 31353 ft | 498 kts | 40° |
| 2026-05-08 09:04 | 28.61961 | 66.08502 | 31354 ft | 499 kts | 40° |
| 2026-05-08 09:05 | 28.66732 | 66.14217 | 31356 ft | 498 kts | 40° |
| 2026-05-08 09:05 | 28.71492 | 66.19927 | 31353 ft | 498 kts | 40° |
| 2026-05-08 09:06 | 28.76245 | 66.25635 | 31359 ft | 499 kts | 40° |
| 2026-05-08 09:06 | 28.81014 | 66.31372 | 31375 ft | 497 kts | 40° |
| 2026-05-08 09:07 | 28.85763 | 66.37092 | 31388 ft | 497 kts | 40° |
| 2026-05-08 09:07 | 28.90504 | 66.42811 | 31388 ft | 497 kts | 39° |
| 2026-05-08 09:08 | 28.95239 | 66.48532 | 31382 ft | 494 kts | 40° |
| 2026-05-08 09:08 | 28.99959 | 66.54241 | 31386 ft | 495 kts | 39° |
| 2026-05-08 09:09 | 29.04684 | 66.59961 | 31401 ft | 496 kts | 39° |
| 2026-05-08 09:09 | 29.09429 | 66.65687 | 31412 ft | 497 kts | 40° |
| 2026-05-08 09:10 | 29.14164 | 66.71411 | 31435 ft | 496 kts | 40° |
| 2026-05-08 09:10 | 29.18902 | 66.77146 | 31446 ft | 496 kts | 40° |
| 2026-05-08 09:11 | 29.23612 | 66.82856 | 31428 ft | 495 kts | 40° |
| 2026-05-08 09:11 | 29.28337 | 66.88593 | 31397 ft | 494 kts | 40° |
| 2026-05-08 09:12 | 29.33046 | 66.94317 | 31380 ft | 496 kts | 40° |
| 2026-05-08 09:12 | 29.37760 | 67.00058 | 31370 ft | 494 kts | 40° |
| 2026-05-08 09:13 | 29.42458 | 67.05786 | 31355 ft | 495 kts | 40° |
| 2026-05-08 09:13 | 29.47172 | 67.11541 | 31307 ft | 496 kts | 40° |
| 2026-05-08 09:14 | 29.51879 | 67.17300 | 31239 ft | 493 kts | 40° |
| 2026-05-08 09:14 | 29.56577 | 67.23052 | 31210 ft | 496 kts | 40° |
| 2026-05-08 09:15 | 29.61270 | 67.28808 | 31191 ft | 493 kts | 40° |
| 2026-05-08 09:15 | 29.65957 | 67.34565 | 31180 ft | 494 kts | 40° |
| 2026-05-08 09:16 | 29.70629 | 67.40313 | 31156 ft | 493 kts | 40° |
| 2026-05-08 09:16 | 29.75293 | 67.46056 | 31109 ft | 492 kts | 40° |
| 2026-05-08 09:17 | 29.79959 | 67.51782 | 31060 ft | 492 kts | 40° |